sensor_id;sensor_type;location;lat;lon;timestamp;temperature;humidity
22114;DHT22;11223;49.968;9.062;2023-07-20T00:00:02;16.40;99.90
22114;DHT22;11223;49.968;9.062;2023-07-20T00:02:29;16.30;99.90
22114;DHT22;11223;49.968;9.062;2023-07-20T00:04:54;16.20;99.90
22114;DHT22;11223;49.968;9.062;2023-07-20T00:07:19;16.20;99.90
22114;DHT22;11223;49.968;9.062;2023-07-20T00:09:45;16.10;99.90
22114;DHT22;11223;49.968;9.062;2023-07-20T00:12:10;16.10;99.90
22114;DHT22;11223;49.968;9.062;2023-07-20T00:14:36;16.10;99.90
22114;DHT22;11223;49.968;9.062;2023-07-20T00:17:02;16.00;99.90
22114;DHT22;11223;49.968;9.062;2023-07-20T00:19:27;16.00;99.90
22114;DHT22;11223;49.968;9.062;2023-07-20T00:21:53;15.90;99.90
22114;DHT22;11223;49.968;9.062;2023-07-20T00:24:20;15.90;99.90
22114;DHT22;11223;49.968;9.062;2023-07-20T00:26:45;15.80;99.90
22114;DHT22;11223;49.968;9.062;2023-07-20T00:29:11;15.80;99.90
22114;DHT22;11223;49.968;9.062;2023-07-20T00:31:36;15.80;99.90
22114;DHT22;11223;49.968;9.062;2023-07-20T00:34:02;15.90;99.90
22114;DHT22;11223;49.968;9.062;2023-07-20T00:36:28;16.00;99.90
22114;DHT22;11223;49.968;9.062;2023-07-20T00:38:53;16.00;99.90
22114;DHT22;11223;49.968;9.062;2023-07-20T00:41:19;16.00;99.90
22114;DHT22;11223;49.968;9.062;2023-07-20T00:43:44;16.00;99.90
22114;DHT22;11223;49.968;9.062;2023-07-20T00:46:10;16.00;99.90
22114;DHT22;11223;49.968;9.062;2023-07-20T00:48:36;16.00;99.90
22114;DHT22;11223;49.968;9.062;2023-07-20T00:51:01;16.00;99.90
22114;DHT22;11223;49.968;9.062;2023-07-20T00:53:27;16.00;99.90
22114;DHT22;11223;49.968;9.062;2023-07-20T00:55:53;16.00;99.90
22114;DHT22;11223;49.968;9.062;2023-07-20T00:58:18;16.00;99.90
22114;DHT22;11223;49.968;9.062;2023-07-20T01:00:44;16.00;99.90
22114;DHT22;11223;49.968;9.062;2023-07-20T01:03:09;16.00;99.90
22114;DHT22;11223;49.968;9.062;2023-07-20T01:05:40;16.00;99.90
22114;DHT22;11223;49.968;9.062;2023-07-20T01:08:09;16.00;99.90
22114;DHT22;11223;49.968;9.062;2023-07-20T01:13:04;16.00;99.90
22114;DHT22;11223;49.968;9.062;2023-07-20T01:15:31;16.10;99.90
22114;DHT22;11223;49.968;9.062;2023-07-20T01:17:58;16.00;99.90
22114;DHT22;11223;49.968;9.062;2023-07-20T01:20:26;16.00;99.90
22114;DHT22;11223;49.968;9.062;2023-07-20T01:30:52;15.90;99.90
22114;DHT22;11223;49.968;9.062;2023-07-20T01:33:20;15.90;99.90
22114;DHT22;11223;49.968;9.062;2023-07-20T01:35:55;15.90;99.90
22114;DHT22;11223;49.968;9.062;2023-07-20T01:38:22;15.90;99.90
22114;DHT22;11223;49.968;9.062;2023-07-20T01:40:48;15.90;99.90
22114;DHT22;11223;49.968;9.062;2023-07-20T01:43:14;15.90;99.90
22114;DHT22;11223;49.968;9.062;2023-07-20T01:45:40;15.90;99.90
22114;DHT22;11223;49.968;9.062;2023-07-20T01:48:05;15.90;99.90
22114;DHT22;11223;49.968;9.062;2023-07-20T01:50:30;15.90;99.90
22114;DHT22;11223;49.968;9.062;2023-07-20T01:52:56;15.90;99.90
22114;DHT22;11223;49.968;9.062;2023-07-20T01:55:21;15.80;99.90
22114;DHT22;11223;49.968;9.062;2023-07-20T01:57:47;15.80;99.90
22114;DHT22;11223;49.968;9.062;2023-07-20T02:00:12;15.80;99.90
22114;DHT22;11223;49.968;9.062;2023-07-20T02:02:38;15.70;99.90
22114;DHT22;11223;49.968;9.062;2023-07-20T02:05:04;15.70;99.90
22114;DHT22;11223;49.968;9.062;2023-07-20T02:07:29;15.60;99.90
22114;DHT22;11223;49.968;9.062;2023-07-20T02:09:55;15.60;99.90
22114;DHT22;11223;49.968;9.062;2023-07-20T02:12:20;15.50;99.90
22114;DHT22;11223;49.968;9.062;2023-07-20T02:14:46;15.50;99.90
22114;DHT22;11223;49.968;9.062;2023-07-20T02:17:11;15.50;99.90
22114;DHT22;11223;49.968;9.062;2023-07-20T02:19:37;15.50;99.90
22114;DHT22;11223;49.968;9.062;2023-07-20T02:22:02;15.50;99.90
22114;DHT22;11223;49.968;9.062;2023-07-20T02:24:28;15.50;99.90
22114;DHT22;11223;49.968;9.062;2023-07-20T02:26:53;15.40;99.90
22114;DHT22;11223;49.968;9.062;2023-07-20T02:29:19;15.40;99.90
22114;DHT22;11223;49.968;9.062;2023-07-20T02:31:44;15.40;99.90
22114;DHT22;11223;49.968;9.062;2023-07-20T02:34:10;15.40;99.90
22114;DHT22;11223;49.968;9.062;2023-07-20T02:36:35;15.40;99.90
22114;DHT22;11223;49.968;9.062;2023-07-20T02:39:00;15.40;99.90
22114;DHT22;11223;49.968;9.062;2023-07-20T02:41:30;15.40;99.90
22114;DHT22;11223;49.968;9.062;2023-07-20T02:43:55;15.30;99.90
22114;DHT22;11223;49.968;9.062;2023-07-20T02:46:22;15.30;99.90
22114;DHT22;11223;49.968;9.062;2023-07-20T02:48:47;15.30;99.90
22114;DHT22;11223;49.968;9.062;2023-07-20T02:51:13;15.30;99.90
22114;DHT22;11223;49.968;9.062;2023-07-20T02:53:38;15.40;99.90
22114;DHT22;11223;49.968;9.062;2023-07-20T02:56:04;15.40;99.90
22114;DHT22;11223;49.968;9.062;2023-07-20T02:58:29;15.40;99.90
22114;DHT22;11223;49.968;9.062;2023-07-20T03:00:55;15.40;99.90
22114;DHT22;11223;49.968;9.062;2023-07-20T03:03:20;15.40;99.90
22114;DHT22;11223;49.968;9.062;2023-07-20T03:05:46;15.50;99.90
22114;DHT22;11223;49.968;9.062;2023-07-20T03:08:11;15.50;99.90
22114;DHT22;11223;49.968;9.062;2023-07-20T03:10:38;15.40;99.90
22114;DHT22;11223;49.968;9.062;2023-07-20T03:13:04;15.40;99.90
22114;DHT22;11223;49.968;9.062;2023-07-20T03:15:29;15.40;99.90
22114;DHT22;11223;49.968;9.062;2023-07-20T03:17:56;15.40;99.90
22114;DHT22;11223;49.968;9.062;2023-07-20T03:20:23;15.30;99.90
22114;DHT22;11223;49.968;9.062;2023-07-20T03:22:48;15.30;99.90
22114;DHT22;11223;49.968;9.062;2023-07-20T03:25:14;15.20;99.90
22114;DHT22;11223;49.968;9.062;2023-07-20T03:27:39;15.20;99.90
22114;DHT22;11223;49.968;9.062;2023-07-20T03:30:06;15.10;99.90
22114;DHT22;11223;49.968;9.062;2023-07-20T03:32:32;15.10;99.90
22114;DHT22;11223;49.968;9.062;2023-07-20T03:34:58;15.00;99.90
22114;DHT22;11223;49.968;9.062;2023-07-20T03:37:23;14.90;99.90
22114;DHT22;11223;49.968;9.062;2023-07-20T03:39:49;14.80;99.90
22114;DHT22;11223;49.968;9.062;2023-07-20T03:42:14;14.80;99.90
22114;DHT22;11223;49.968;9.062;2023-07-20T03:44:39;14.80;99.90
22114;DHT22;11223;49.968;9.062;2023-07-20T03:47:05;14.70;99.90
22114;DHT22;11223;49.968;9.062;2023-07-20T03:49:31;14.70;99.90
22114;DHT22;11223;49.968;9.062;2023-07-20T03:51:57;14.70;99.90
22114;DHT22;11223;49.968;9.062;2023-07-20T03:54:22;14.70;99.90
22114;DHT22;11223;49.968;9.062;2023-07-20T03:56:48;14.60;99.90
22114;DHT22;11223;49.968;9.062;2023-07-20T03:59:13;14.60;99.90
22114;DHT22;11223;49.968;9.062;2023-07-20T04:01:39;14.60;99.90
22114;DHT22;11223;49.968;9.062;2023-07-20T04:04:06;14.60;99.90
22114;DHT22;11223;49.968;9.062;2023-07-20T04:06:32;14.50;99.90
22114;DHT22;11223;49.968;9.062;2023-07-20T04:08:57;14.50;99.90
22114;DHT22;11223;49.968;9.062;2023-07-20T04:11:23;14.40;99.90
22114;DHT22;11223;49.968;9.062;2023-07-20T04:13:49;14.40;99.90
22114;DHT22;11223;49.968;9.062;2023-07-20T04:16:14;14.40;99.90
22114;DHT22;11223;49.968;9.062;2023-07-20T04:18:40;14.40;99.90
22114;DHT22;11223;49.968;9.062;2023-07-20T04:21:07;14.40;99.90
22114;DHT22;11223;49.968;9.062;2023-07-20T04:23:32;14.40;99.90
22114;DHT22;11223;49.968;9.062;2023-07-20T04:25:58;14.40;99.90
22114;DHT22;11223;49.968;9.062;2023-07-20T04:28:23;14.40;99.90
22114;DHT22;11223;49.968;9.062;2023-07-20T04:30:49;14.40;99.90
22114;DHT22;11223;49.968;9.062;2023-07-20T04:33:15;14.40;99.90
22114;DHT22;11223;49.968;9.062;2023-07-20T04:35:49;14.40;99.90
22114;DHT22;11223;49.968;9.062;2023-07-20T04:38:15;14.40;99.90
22114;DHT22;11223;49.968;9.062;2023-07-20T04:40:46;14.40;99.90
22114;DHT22;11223;49.968;9.062;2023-07-20T04:43:12;14.40;99.90
22114;DHT22;11223;49.968;9.062;2023-07-20T04:45:38;14.40;99.90
22114;DHT22;11223;49.968;9.062;2023-07-20T04:48:05;14.40;99.90
22114;DHT22;11223;49.968;9.062;2023-07-20T04:50:31;14.30;99.90
22114;DHT22;11223;49.968;9.062;2023-07-20T04:52:56;14.30;99.90
22114;DHT22;11223;49.968;9.062;2023-07-20T04:55:22;14.40;99.90
22114;DHT22;11223;49.968;9.062;2023-07-20T04:57:47;14.40;99.90
22114;DHT22;11223;49.968;9.062;2023-07-20T05:00:13;14.40;99.90
22114;DHT22;11223;49.968;9.062;2023-07-20T05:02:39;14.50;99.90
22114;DHT22;11223;49.968;9.062;2023-07-20T05:05:05;14.50;99.90
22114;DHT22;11223;49.968;9.062;2023-07-20T05:07:34;14.60;99.90
22114;DHT22;11223;49.968;9.062;2023-07-20T05:09:59;14.60;99.90
22114;DHT22;11223;49.968;9.062;2023-07-20T05:12:25;14.70;99.90
22114;DHT22;11223;49.968;9.062;2023-07-20T05:14:51;14.80;99.90
22114;DHT22;11223;49.968;9.062;2023-07-20T05:17:16;14.90;99.90
22114;DHT22;11223;49.968;9.062;2023-07-20T05:19:42;15.00;99.90
22114;DHT22;11223;49.968;9.062;2023-07-20T05:22:07;15.10;99.90
22114;DHT22;11223;49.968;9.062;2023-07-20T05:24:33;15.10;99.90
22114;DHT22;11223;49.968;9.062;2023-07-20T05:26:58;15.10;99.90
22114;DHT22;11223;49.968;9.062;2023-07-20T05:29:24;15.10;99.90
22114;DHT22;11223;49.968;9.062;2023-07-20T05:31:50;15.10;99.90
22114;DHT22;11223;49.968;9.062;2023-07-20T05:34:16;15.10;99.90
22114;DHT22;11223;49.968;9.062;2023-07-20T05:36:41;15.10;99.90
22114;DHT22;11223;49.968;9.062;2023-07-20T05:39:07;15.10;99.90
22114;DHT22;11223;49.968;9.062;2023-07-20T05:41:32;15.10;99.90
22114;DHT22;11223;49.968;9.062;2023-07-20T05:43:58;15.20;99.90
22114;DHT22;11223;49.968;9.062;2023-07-20T05:46:23;15.40;99.90
22114;DHT22;11223;49.968;9.062;2023-07-20T05:48:49;15.50;99.90
22114;DHT22;11223;49.968;9.062;2023-07-20T05:51:15;15.70;99.90
22114;DHT22;11223;49.968;9.062;2023-07-20T05:53:40;15.90;99.90
22114;DHT22;11223;49.968;9.062;2023-07-20T05:56:06;16.00;99.90
22114;DHT22;11223;49.968;9.062;2023-07-20T05:58:35;16.10;99.90
22114;DHT22;11223;49.968;9.062;2023-07-20T06:01:01;16.10;99.90
22114;DHT22;11223;49.968;9.062;2023-07-20T06:03:27;16.10;99.90
22114;DHT22;11223;49.968;9.062;2023-07-20T06:05:58;16.20;99.90
22114;DHT22;11223;49.968;9.062;2023-07-20T06:08:23;16.20;99.90
22114;DHT22;11223;49.968;9.062;2023-07-20T06:10:52;16.30;99.90
22114;DHT22;11223;49.968;9.062;2023-07-20T06:13:17;16.30;99.90
22114;DHT22;11223;49.968;9.062;2023-07-20T06:15:43;16.30;99.90
22114;DHT22;11223;49.968;9.062;2023-07-20T06:18:08;16.40;99.90
22114;DHT22;11223;49.968;9.062;2023-07-20T06:20:34;16.40;99.90
22114;DHT22;11223;49.968;9.062;2023-07-20T06:22:59;16.40;99.90
22114;DHT22;11223;49.968;9.062;2023-07-20T06:25:25;16.50;99.90
22114;DHT22;11223;49.968;9.062;2023-07-20T06:27:50;16.50;99.90
22114;DHT22;11223;49.968;9.062;2023-07-20T06:30:19;16.50;99.90
22114;DHT22;11223;49.968;9.062;2023-07-20T06:32:45;16.60;99.90
22114;DHT22;11223;49.968;9.062;2023-07-20T06:35:10;16.60;99.90
22114;DHT22;11223;49.968;9.062;2023-07-20T06:37:36;16.70;99.90
22114;DHT22;11223;49.968;9.062;2023-07-20T06:40:02;16.80;99.90
22114;DHT22;11223;49.968;9.062;2023-07-20T06:42:29;16.90;99.90
22114;DHT22;11223;49.968;9.062;2023-07-20T06:44:54;16.90;99.90
22114;DHT22;11223;49.968;9.062;2023-07-20T06:47:20;17.00;99.90
22114;DHT22;11223;49.968;9.062;2023-07-20T06:49:45;17.10;99.90
22114;DHT22;11223;49.968;9.062;2023-07-20T06:52:11;17.20;99.90
22114;DHT22;11223;49.968;9.062;2023-07-20T06:54:37;17.40;99.90
22114;DHT22;11223;49.968;9.062;2023-07-20T06:57:02;17.60;99.90
22114;DHT22;11223;49.968;9.062;2023-07-20T06:59:28;17.80;99.90
22114;DHT22;11223;49.968;9.062;2023-07-20T07:01:53;17.90;99.90
22114;DHT22;11223;49.968;9.062;2023-07-20T07:04:19;18.00;99.90
22114;DHT22;11223;49.968;9.062;2023-07-20T07:06:44;18.10;99.90
22114;DHT22;11223;49.968;9.062;2023-07-20T07:09:09;18.10;99.90
22114;DHT22;11223;49.968;9.062;2023-07-20T07:11:35;18.10;99.90
22114;DHT22;11223;49.968;9.062;2023-07-20T07:14:00;18.10;99.90
22114;DHT22;11223;49.968;9.062;2023-07-20T07:16:26;18.10;99.90
22114;DHT22;11223;49.968;9.062;2023-07-20T07:18:51;18.10;99.90
22114;DHT22;11223;49.968;9.062;2023-07-20T07:21:17;18.10;99.90
22114;DHT22;11223;49.968;9.062;2023-07-20T07:23:43;18.20;99.90
22114;DHT22;11223;49.968;9.062;2023-07-20T07:26:09;18.40;99.90
22114;DHT22;11223;49.968;9.062;2023-07-20T07:28:34;18.50;99.90
22114;DHT22;11223;49.968;9.062;2023-07-20T07:31:00;18.60;99.90
22114;DHT22;11223;49.968;9.062;2023-07-20T07:33:25;18.70;99.90
22114;DHT22;11223;49.968;9.062;2023-07-20T07:35:51;18.70;99.90
22114;DHT22;11223;49.968;9.062;2023-07-20T07:38:18;18.90;99.90
22114;DHT22;11223;49.968;9.062;2023-07-20T07:40:43;19.00;99.90
22114;DHT22;11223;49.968;9.062;2023-07-20T07:43:09;19.10;99.90
22114;DHT22;11223;49.968;9.062;2023-07-20T07:45:35;19.30;99.90
22114;DHT22;11223;49.968;9.062;2023-07-20T07:48:03;19.40;99.90
22114;DHT22;11223;49.968;9.062;2023-07-20T07:50:29;19.50;99.90
22114;DHT22;11223;49.968;9.062;2023-07-20T07:52:55;19.50;99.90
22114;DHT22;11223;49.968;9.062;2023-07-20T07:55:20;19.70;99.90
22114;DHT22;11223;49.968;9.062;2023-07-20T07:57:46;19.80;99.90
22114;DHT22;11223;49.968;9.062;2023-07-20T08:00:13;20.00;99.90
22114;DHT22;11223;49.968;9.062;2023-07-20T08:02:40;20.20;99.90
22114;DHT22;11223;49.968;9.062;2023-07-20T08:05:06;20.40;99.90
22114;DHT22;11223;49.968;9.062;2023-07-20T08:07:32;20.50;99.90
22114;DHT22;11223;49.968;9.062;2023-07-20T08:09:57;20.60;99.90
22114;DHT22;11223;49.968;9.062;2023-07-20T08:12:23;20.70;99.90
22114;DHT22;11223;49.968;9.062;2023-07-20T08:14:48;20.60;99.90
22114;DHT22;11223;49.968;9.062;2023-07-20T08:17:14;20.60;99.90
22114;DHT22;11223;49.968;9.062;2023-07-20T08:19:39;20.60;99.90
22114;DHT22;11223;49.968;9.062;2023-07-20T08:22:07;20.60;99.90
22114;DHT22;11223;49.968;9.062;2023-07-20T08:24:32;20.70;99.90
22114;DHT22;11223;49.968;9.062;2023-07-20T08:26:58;20.90;99.90
22114;DHT22;11223;49.968;9.062;2023-07-20T08:29:24;21.00;99.90
22114;DHT22;11223;49.968;9.062;2023-07-20T08:31:49;21.10;99.90
22114;DHT22;11223;49.968;9.062;2023-07-20T08:34:15;21.10;99.90
22114;DHT22;11223;49.968;9.062;2023-07-20T08:36:40;21.20;99.90
22114;DHT22;11223;49.968;9.062;2023-07-20T08:39:06;21.30;99.90
22114;DHT22;11223;49.968;9.062;2023-07-20T08:41:34;21.40;99.90
22114;DHT22;11223;49.968;9.062;2023-07-20T08:43:59;21.50;99.90
22114;DHT22;11223;49.968;9.062;2023-07-20T08:46:26;21.80;99.90
22114;DHT22;11223;49.968;9.062;2023-07-20T08:48:52;22.00;99.90
22114;DHT22;11223;49.968;9.062;2023-07-20T08:51:18;22.00;99.90
22114;DHT22;11223;49.968;9.062;2023-07-20T08:53:45;21.90;99.90
22114;DHT22;11223;49.968;9.062;2023-07-20T08:56:11;21.70;99.90
22114;DHT22;11223;49.968;9.062;2023-07-20T08:58:36;21.40;99.90
22114;DHT22;11223;49.968;9.062;2023-07-20T09:01:02;21.30;99.90
22114;DHT22;11223;49.968;9.062;2023-07-20T09:03:28;21.20;99.90
22114;DHT22;11223;49.968;9.062;2023-07-20T09:05:54;21.00;99.90
22114;DHT22;11223;49.968;9.062;2023-07-20T09:08:19;20.90;99.90
22114;DHT22;11223;49.968;9.062;2023-07-20T09:10:45;20.80;99.90
22114;DHT22;11223;49.968;9.062;2023-07-20T09:13:14;20.70;99.90
22114;DHT22;11223;49.968;9.062;2023-07-20T09:15:39;20.50;99.90
22114;DHT22;11223;49.968;9.062;2023-07-20T09:18:11;20.40;99.90
22114;DHT22;11223;49.968;9.062;2023-07-20T09:20:36;20.20;99.90
22114;DHT22;11223;49.968;9.062;2023-07-20T09:23:05;20.10;99.90
22114;DHT22;11223;49.968;9.062;2023-07-20T09:25:31;20.10;99.90
22114;DHT22;11223;49.968;9.062;2023-07-20T09:27:57;20.40;99.90
22114;DHT22;11223;49.968;9.062;2023-07-20T09:30:24;20.80;99.90
22114;DHT22;11223;49.968;9.062;2023-07-20T09:32:50;21.20;99.90
22114;DHT22;11223;49.968;9.062;2023-07-20T09:35:17;21.50;99.90
22114;DHT22;11223;49.968;9.062;2023-07-20T09:40:20;22.30;99.90
22114;DHT22;11223;49.968;9.062;2023-07-20T09:42:46;22.60;99.90
22114;DHT22;11223;49.968;9.062;2023-07-20T09:45:13;22.90;99.90
22114;DHT22;11223;49.968;9.062;2023-07-20T09:47:38;23.10;99.90
22114;DHT22;11223;49.968;9.062;2023-07-20T09:50:05;23.20;99.90
22114;DHT22;11223;49.968;9.062;2023-07-20T09:52:35;23.10;99.90
22114;DHT22;11223;49.968;9.062;2023-07-20T09:55:03;23.10;99.90
22114;DHT22;11223;49.968;9.062;2023-07-20T09:57:28;23.10;99.90
22114;DHT22;11223;49.968;9.062;2023-07-20T09:59:54;23.00;99.90
22114;DHT22;11223;49.968;9.062;2023-07-20T10:02:20;22.90;99.90
22114;DHT22;11223;49.968;9.062;2023-07-20T10:04:47;22.70;99.90
22114;DHT22;11223;49.968;9.062;2023-07-20T10:07:14;22.70;99.90
22114;DHT22;11223;49.968;9.062;2023-07-20T10:09:40;22.70;99.90
22114;DHT22;11223;49.968;9.062;2023-07-20T10:12:08;22.70;99.90
22114;DHT22;11223;49.968;9.062;2023-07-20T10:14:35;22.60;99.90
22114;DHT22;11223;49.968;9.062;2023-07-20T10:17:03;22.60;99.90
22114;DHT22;11223;49.968;9.062;2023-07-20T10:19:33;22.50;99.90
22114;DHT22;11223;49.968;9.062;2023-07-20T10:22:34;22.40;99.90
22114;DHT22;11223;49.968;9.062;2023-07-20T10:24:51;22.40;99.90
22114;DHT22;11223;49.968;9.062;2023-07-20T10:27:20;22.80;99.90
22114;DHT22;11223;49.968;9.062;2023-07-20T10:29:45;23.10;99.90
22114;DHT22;11223;49.968;9.062;2023-07-20T10:32:11;23.30;99.90
22114;DHT22;11223;49.968;9.062;2023-07-20T10:34:37;23.50;99.90
22114;DHT22;11223;49.968;9.062;2023-07-20T10:37:02;23.90;99.90
22114;DHT22;11223;49.968;9.062;2023-07-20T10:39:30;24.10;99.50
22114;DHT22;11223;49.968;9.062;2023-07-20T10:44:07;24.30;99.90
22114;DHT22;11223;49.968;9.062;2023-07-20T10:49:05;24.10;99.90
22114;DHT22;11223;49.968;9.062;2023-07-20T10:54:33;23.90;99.90
22114;DHT22;11223;49.968;9.062;2023-07-20T10:56:58;23.70;99.90
22114;DHT22;11223;49.968;9.062;2023-07-20T11:01:55;23.30;99.90
22114;DHT22;11223;49.968;9.062;2023-07-20T11:04:40;23.30;99.90
22114;DHT22;11223;49.968;9.062;2023-07-20T11:07:05;23.70;99.90
22114;DHT22;11223;49.968;9.062;2023-07-20T11:09:35;24.00;99.80
22114;DHT22;11223;49.968;9.062;2023-07-20T11:12:10;24.00;99.60
22114;DHT22;11223;49.968;9.062;2023-07-20T11:14:36;23.90;99.90
22114;DHT22;11223;49.968;9.062;2023-07-20T11:17:11;23.70;99.90
22114;DHT22;11223;49.968;9.062;2023-07-20T11:19:38;23.60;99.90
22114;DHT22;11223;49.968;9.062;2023-07-20T11:22:04;23.50;99.90
22114;DHT22;11223;49.968;9.062;2023-07-20T11:24:30;23.50;99.90
22114;DHT22;11223;49.968;9.062;2023-07-20T11:26:55;23.50;99.90
22114;DHT22;11223;49.968;9.062;2023-07-20T11:29:21;23.40;99.90
22114;DHT22;11223;49.968;9.062;2023-07-20T11:31:48;23.30;99.90
22114;DHT22;11223;49.968;9.062;2023-07-20T11:34:16;23.20;99.90
22114;DHT22;11223;49.968;9.062;2023-07-20T11:36:42;23.10;99.90
22114;DHT22;11223;49.968;9.062;2023-07-20T11:39:08;23.00;99.90
22114;DHT22;11223;49.968;9.062;2023-07-20T11:41:34;22.90;99.90
22114;DHT22;11223;49.968;9.062;2023-07-20T11:43:59;22.90;99.90
22114;DHT22;11223;49.968;9.062;2023-07-20T11:46:27;22.80;99.90
22114;DHT22;11223;49.968;9.062;2023-07-20T11:48:58;22.80;99.90
22114;DHT22;11223;49.968;9.062;2023-07-20T11:51:28;22.90;99.90
22114;DHT22;11223;49.968;9.062;2023-07-20T11:53:53;23.00;99.90
22114;DHT22;11223;49.968;9.062;2023-07-20T11:56:19;23.20;99.90
22114;DHT22;11223;49.968;9.062;2023-07-20T11:58:45;23.40;99.90
22114;DHT22;11223;49.968;9.062;2023-07-20T12:01:14;23.60;99.90
22114;DHT22;11223;49.968;9.062;2023-07-20T12:03:41;23.80;99.90
22114;DHT22;11223;49.968;9.062;2023-07-20T12:06:07;24.10;99.90
22114;DHT22;11223;49.968;9.062;2023-07-20T12:08:33;24.20;99.90
22114;DHT22;11223;49.968;9.062;2023-07-20T12:10:59;24.30;99.90
22114;DHT22;11223;49.968;9.062;2023-07-20T12:13:35;24.50;96.40
22114;DHT22;11223;49.968;9.062;2023-07-20T12:16:06;24.70;96.40
22114;DHT22;11223;49.968;9.062;2023-07-20T12:18:35;25.20;97.00
22114;DHT22;11223;49.968;9.062;2023-07-20T12:21:01;25.70;94.10
22114;DHT22;11223;49.968;9.062;2023-07-20T12:23:26;26.20;95.50
22114;DHT22;11223;49.968;9.062;2023-07-20T12:25:52;26.60;92.80
22114;DHT22;11223;49.968;9.062;2023-07-20T12:28:19;26.70;92.60
22114;DHT22;11223;49.968;9.062;2023-07-20T12:30:44;26.50;93.00
22114;DHT22;11223;49.968;9.062;2023-07-20T12:33:10;26.20;90.60
22114;DHT22;11223;49.968;9.062;2023-07-20T12:35:37;25.90;91.70
22114;DHT22;11223;49.968;9.062;2023-07-20T12:38:02;26.10;92.70
22114;DHT22;11223;49.968;9.062;2023-07-20T12:40:28;26.40;90.30
22114;DHT22;11223;49.968;9.062;2023-07-20T12:42:54;26.50;91.40
22114;DHT22;11223;49.968;9.062;2023-07-20T12:45:19;26.60;88.00
22114;DHT22;11223;49.968;9.062;2023-07-20T12:47:45;26.30;91.60
22114;DHT22;11223;49.968;9.062;2023-07-20T12:50:10;26.30;90.80
22114;DHT22;11223;49.968;9.062;2023-07-20T12:52:36;26.40;95.50
22114;DHT22;11223;49.968;9.062;2023-07-20T12:55:02;26.60;94.10
22114;DHT22;11223;49.968;9.062;2023-07-20T12:57:28;26.80;91.70
22114;DHT22;11223;49.968;9.062;2023-07-20T12:59:53;27.00;89.40
22114;DHT22;11223;49.968;9.062;2023-07-20T13:02:19;27.20;89.60
22114;DHT22;11223;49.968;9.062;2023-07-20T13:04:44;27.40;84.50
22114;DHT22;11223;49.968;9.062;2023-07-20T13:07:10;27.50;85.40
22114;DHT22;11223;49.968;9.062;2023-07-20T13:09:37;27.60;86.80
22114;DHT22;11223;49.968;9.062;2023-07-20T13:12:02;27.60;77.40
22114;DHT22;11223;49.968;9.062;2023-07-20T13:14:28;27.40;76.40
22114;DHT22;11223;49.968;9.062;2023-07-20T13:16:55;27.40;77.70
22114;DHT22;11223;49.968;9.062;2023-07-20T13:19:20;27.50;76.60
22114;DHT22;11223;49.968;9.062;2023-07-20T13:21:46;27.50;77.10
22114;DHT22;11223;49.968;9.062;2023-07-20T13:24:11;27.60;84.30
22114;DHT22;11223;49.968;9.062;2023-07-20T13:26:37;27.80;78.20
22114;DHT22;11223;49.968;9.062;2023-07-20T13:29:02;27.80;74.40
22114;DHT22;11223;49.968;9.062;2023-07-20T13:31:28;27.90;76.10
22114;DHT22;11223;49.968;9.062;2023-07-20T13:33:53;27.80;80.70
22114;DHT22;11223;49.968;9.062;2023-07-20T13:36:20;27.70;86.20
22114;DHT22;11223;49.968;9.062;2023-07-20T13:38:46;27.40;76.00
22114;DHT22;11223;49.968;9.062;2023-07-20T13:41:11;27.20;76.40
22114;DHT22;11223;49.968;9.062;2023-07-20T13:43:37;27.50;74.30
22114;DHT22;11223;49.968;9.062;2023-07-20T13:46:02;27.90;73.50
22114;DHT22;11223;49.968;9.062;2023-07-20T13:48:28;28.30;80.20
22114;DHT22;11223;49.968;9.062;2023-07-20T13:50:53;28.40;79.60
22114;DHT22;11223;49.968;9.062;2023-07-20T13:53:19;27.90;85.70
22114;DHT22;11223;49.968;9.062;2023-07-20T13:55:47;27.30;86.00
22114;DHT22;11223;49.968;9.062;2023-07-20T13:58:13;26.70;85.80
22114;DHT22;11223;49.968;9.062;2023-07-20T14:00:38;26.30;87.80
22114;DHT22;11223;49.968;9.062;2023-07-20T14:03:04;25.90;85.50
22114;DHT22;11223;49.968;9.062;2023-07-20T14:05:29;25.50;90.80
22114;DHT22;11223;49.968;9.062;2023-07-20T14:07:55;25.20;90.40
22114;DHT22;11223;49.968;9.062;2023-07-20T14:10:20;25.00;90.10
22114;DHT22;11223;49.968;9.062;2023-07-20T14:12:46;24.80;90.90
22114;DHT22;11223;49.968;9.062;2023-07-20T14:15:11;24.60;90.00
22114;DHT22;11223;49.968;9.062;2023-07-20T14:17:37;24.70;89.40
22114;DHT22;11223;49.968;9.062;2023-07-20T14:20:02;24.70;90.10
22114;DHT22;11223;49.968;9.062;2023-07-20T14:22:31;24.80;90.50
22114;DHT22;11223;49.968;9.062;2023-07-20T14:24:57;24.90;91.50
22114;DHT22;11223;49.968;9.062;2023-07-20T14:27:22;24.90;90.90
22114;DHT22;11223;49.968;9.062;2023-07-20T14:29:48;25.00;91.40
22114;DHT22;11223;49.968;9.062;2023-07-20T14:32:13;25.60;89.70
22114;DHT22;11223;49.968;9.062;2023-07-20T14:34:39;26.40;90.20
22114;DHT22;11223;49.968;9.062;2023-07-20T14:37:05;27.10;91.40
22114;DHT22;11223;49.968;9.062;2023-07-20T14:39:31;28.30;87.60
22114;DHT22;11223;49.968;9.062;2023-07-20T14:41:57;29.80;83.20
22114;DHT22;11223;49.968;9.062;2023-07-20T14:44:22;30.60;72.30
22114;DHT22;11223;49.968;9.062;2023-07-20T14:46:48;30.30;71.00
22114;DHT22;11223;49.968;9.062;2023-07-20T14:49:13;29.50;70.90
22114;DHT22;11223;49.968;9.062;2023-07-20T14:51:39;28.60;70.60
22114;DHT22;11223;49.968;9.062;2023-07-20T14:54:09;28.10;75.30
22114;DHT22;11223;49.968;9.062;2023-07-20T14:56:34;27.60;77.40
22114;DHT22;11223;49.968;9.062;2023-07-20T14:59:00;26.90;67.40
22114;DHT22;11223;49.968;9.062;2023-07-20T15:01:25;26.70;81.60
22114;DHT22;11223;49.968;9.062;2023-07-20T15:03:51;27.50;81.00
22114;DHT22;11223;49.968;9.062;2023-07-20T15:06:18;29.80;68.00
22114;DHT22;11223;49.968;9.062;2023-07-20T15:08:44;32.50;59.60
22114;DHT22;11223;49.968;9.062;2023-07-20T15:11:10;34.60;54.60
22114;DHT22;11223;49.968;9.062;2023-07-20T15:13:35;36.40;51.40
22114;DHT22;11223;49.968;9.062;2023-07-20T15:16:01;37.30;48.30
22114;DHT22;11223;49.968;9.062;2023-07-20T15:18:26;37.20;47.60
22114;DHT22;11223;49.968;9.062;2023-07-20T15:20:51;37.10;50.90
22114;DHT22;11223;49.968;9.062;2023-07-20T15:23:19;36.70;53.90
22114;DHT22;11223;49.968;9.062;2023-07-20T15:25:44;36.10;52.70
22114;DHT22;11223;49.968;9.062;2023-07-20T15:28:10;35.80;54.20
22114;DHT22;11223;49.968;9.062;2023-07-20T15:30:36;35.30;54.70
22114;DHT22;11223;49.968;9.062;2023-07-20T15:33:01;35.00;54.10
22114;DHT22;11223;49.968;9.062;2023-07-20T15:35:26;34.80;55.50
22114;DHT22;11223;49.968;9.062;2023-07-20T15:37:52;34.30;55.70
22114;DHT22;11223;49.968;9.062;2023-07-20T15:40:18;34.10;51.50
22114;DHT22;11223;49.968;9.062;2023-07-20T15:42:43;33.90;51.70
22114;DHT22;11223;49.968;9.062;2023-07-20T15:45:09;33.20;47.80